Time;durP1;ratioP1;P1;durP2;ratioP2;P2;SDS_P1;SDS_P2;PMS_P1;PMS_P2;Temp;Humidity;BMP_temperature;BMP_pressure;BME280_temperature;BME280_humidity;BME280_pressure;Samples;Min_cycle;Max_cycle;Signal;HPM_P1;HPM_P2
2021/12/20 00:01:54;;;;;;;26.07;15.40;;;2.80;99.90;;;;;;4964962;28;20285;-51
2021/12/20 00:04:20;;;;;;;26.20;17.37;;;2.70;99.90;;;;;;4952559;28;20206;-53
2021/12/20 00:06:45;;;;;;;21.43;15.27;;;2.70;99.90;;;;;;4951515;29;20229;-51
2021/12/20 00:09:11;;;;;;;20.33;15.00;;;2.70;99.90;;;;;;4952064;29;20174;-52
2021/12/20 00:11:37;;;;;;;23.33;16.07;;;2.80;99.90;;;;;;4951821;29;20198;-51
2021/12/20 00:14:02;;;;;;;21.97;14.97;;;2.80;99.90;;;;;;4951953;29;20186;-57
2021/12/20 00:16:28;;;;;;;21.23;14.93;;;2.80;99.90;;;;;;4951173;29;20194;-51
2021/12/20 00:18:53;;;;;;;20.93;15.37;;;2.90;99.90;;;;;;4951938;29;20186;-52
2021/12/20 00:21:19;;;;;;;19.63;14.20;;;2.90;99.90;;;;;;5010772;28;20196;-52
2021/12/20 00:23:45;;;;;;;22.83;15.70;;;3.00;99.90;;;;;;5012253;28;20219;-56
2021/12/20 00:26:11;;;;;;;23.20;15.60;;;2.90;99.90;;;;;;5011935;28;20211;-52
2021/12/20 00:28:37;;;;;;;20.20;14.80;;;2.90;99.90;;;;;;5012174;28;20207;-53
2021/12/20 00:31:03;;;;;;;21.70;15.20;;;2.90;99.90;;;;;;5012101;28;20168;-51
2021/12/20 00:33:33;;;;;;;21.63;15.17;;;2.80;99.90;;;;;;5012062;28;20178;-54
2021/12/20 00:36:03;;;;;;;23.10;15.73;;;2.80;99.90;;;;;;5011910;28;20196;-52
2021/12/20 00:41:13;;;;;;;26.10;16.57;;;2.80;99.90;;;;;;5012161;28;20187;-55
2021/12/20 00:43:39;;;;;;;22.63;15.60;;;2.80;99.90;;;;;;5011871;28;20266;-54
2021/12/20 00:46:05;;;;;;;24.97;15.97;;;;;;;;;;5011645;28;20193;-55
2021/12/20 00:48:30;;;;;;;23.33;15.20;;;2.80;99.90;;;;;;5011965;28;20207;-54
2021/12/20 00:50:56;;;;;;;22.87;16.30;;;2.80;99.90;;;;;;5012008;28;20179;-53
2021/12/20 00:53:22;;;;;;;22.93;15.53;;;2.80;99.90;;;;;;5011893;28;20177;-53
2021/12/20 00:55:48;;;;;;;23.83;16.03;;;2.80;99.90;;;;;;5011648;28;20561;-54
2021/12/20 00:58:13;;;;;;;25.27;17.20;;;2.80;99.90;;;;;;5011875;28;20204;-54
2021/12/20 01:00:43;;;;;;;24.23;15.90;;;2.80;99.90;;;;;;5011847;28;20176;-54
2021/12/20 01:03:10;;;;;;;25.93;17.20;;;2.80;99.90;;;;;;5011830;28;20195;-55
2021/12/20 01:05:38;;;;;;;25.23;15.87;;;2.80;99.90;;;;;;5011392;28;20228;-55
2021/12/20 01:08:05;;;;;;;21.73;15.47;;;2.80;99.90;;;;;;5012042;28;20252;-50
2021/12/20 01:10:32;;;;;;;21.30;14.77;;;2.90;99.90;;;;;;5011715;28;20238;-51
2021/12/20 01:13:00;;;;;;;24.77;15.37;;;2.90;99.90;;;;;;5012356;28;20176;-52
2021/12/20 01:15:49;;;;;;;22.00;15.20;;;2.90;99.90;;;;;;5011454;28;20638;-52
2021/12/20 01:18:17;;;;;;;23.57;15.63;;;3.00;99.90;;;;;;5011848;28;20164;-51
2021/12/20 01:20:43;;;;;;;23.60;15.70;;;3.00;99.90;;;;;;5011643;28;20177;-52
2021/12/20 01:23:10;;;;;;;23.43;15.17;;;3.00;99.90;;;;;;5011563;28;20199;-50
2021/12/20 01:25:36;;;;;;;23.97;16.00;;;3.00;99.90;;;;;;5011203;28;20203;-51
2021/12/20 01:28:02;;;;;;;22.17;15.90;;;3.00;99.90;;;;;;5011694;28;20173;-53
2021/12/20 01:30:28;;;;;;;22.80;15.20;;;2.90;99.90;;;;;;5011590;28;20169;-53
2021/12/20 01:32:54;;;;;;;24.40;16.00;;;2.90;99.90;;;;;;5011651;28;20680;-53
2021/12/20 01:35:23;;;;;;;24.97;16.07;;;3.00;99.90;;;;;;5014478;28;20219;-51
2021/12/20 01:37:49;;;;;;;23.63;15.40;;;2.90;99.90;;;;;;5015228;28;20173;-51
2021/12/20 01:40:16;;;;;;;22.63;15.23;;;2.80;99.90;;;;;;5015300;28;20230;-51
2021/12/20 01:42:43;;;;;;;25.50;16.17;;;2.90;99.90;;;;;;5014977;28;20192;-54
2021/12/20 01:45:18;;;;;;;24.37;16.20;;;2.80;99.90;;;;;;5014895;28;20191;-55
2021/12/20 01:47:47;;;;;;;23.33;16.20;;;2.80;99.90;;;;;;5015149;28;20170;-50
2021/12/20 01:50:24;;;;;;;25.70;16.67;;;2.70;99.90;;;;;;5015074;28;20168;-53
2021/12/20 01:52:50;;;;;;;24.00;14.77;;;2.80;99.90;;;;;;5014951;28;20172;-52
2021/12/20 01:55:21;;;;;;;21.73;15.10;;;2.80;99.90;;;;;;5014731;28;20200;-51
2021/12/20 01:57:48;;;;;;;24.00;15.67;;;2.70;99.90;;;;;;5014885;28;20537;-52
2021/12/20 02:00:22;;;;;;;21.13;14.43;;;2.70;99.90;;;;;;5014952;28;20180;-54
2021/12/20 02:02:53;;;;;;;23.27;15.23;;;2.70;99.90;;;;;;5014602;28;20581;-51
2021/12/20 02:05:27;;;;;;;24.43;15.40;;;2.70;99.90;;;;;;5014436;28;20234;-51
2021/12/20 02:08:13;;;;;;;21.37;14.87;;;2.60;99.90;;;;;;5014633;28;20246;-51
2021/12/20 02:10:38;;;;;;;24.83;16.27;;;2.70;99.90;;;;;;5014792;28;20264;-52
2021/12/20 02:13:04;;;;;;;24.53;16.37;;;2.70;99.90;;;;;;5014355;28;20608;-55
2021/12/20 02:15:30;;;;;;;23.70;15.47;;;2.80;99.90;;;;;;5014303;28;20659;-51
2021/12/20 02:17:55;;;;;;;23.23;14.70;;;2.80;99.90;;;;;;5014633;28;20219;-51
2021/12/20 02:20:27;;;;;;;22.97;15.40;;;2.80;99.90;;;;;;5014294;28;20208;-51
2021/12/20 02:22:57;;;;;;;21.87;14.90;;;2.80;99.90;;;;;;5014441;28;20192;-52
2021/12/20 02:25:24;;;;;;;22.40;14.63;;;2.80;99.90;;;;;;5013989;28;20202;-54
2021/12/20 02:27:50;;;;;;;22.87;15.73;;;2.80;99.90;;;;;;5014385;28;20853;-52
2021/12/20 02:38:19;;;;;;;21.43;14.17;;;2.90;99.90;;;;;;5014564;28;20235;-51
2021/12/20 02:40:46;;;;;;;24.77;14.83;;;3.00;99.90;;;;;;5014095;28;20173;-55
2021/12/20 02:43:16;;;;;;;22.87;15.53;;;3.00;99.90;;;;;;5013970;28;20224;-52
2021/12/20 02:45:42;;;;;;;26.13;16.30;;;3.00;99.90;;;;;;5013158;28;20743;-51
2021/12/20 02:48:08;;;;;;;23.03;15.53;;;2.80;99.90;;;;;;5014070;28;20219;-51
2021/12/20 02:50:34;;;;;;;25.00;15.67;;;2.80;99.90;;;;;;4996258;28;20200;-51
2021/12/20 02:52:59;;;;;;;25.27;16.63;;;2.80;99.90;;;;;;5013931;28;20716;-51
2021/12/20 02:55:25;;;;;;;23.97;15.70;;;2.80;99.90;;;;;;5013503;28;20189;-55
2021/12/20 02:57:51;;;;;;;26.43;16.67;;;2.80;99.90;;;;;;5013834;28;20188;-54
2021/12/20 03:00:17;;;;;;;24.80;16.07;;;2.80;99.90;;;;;;5013826;28;20180;-53
2021/12/20 03:02:43;;;;;;;24.27;15.97;;;2.80;99.90;;;;;;5013529;28;20279;-51
2021/12/20 03:05:11;;;;;;;24.27;16.03;;;2.90;99.90;;;;;;5038661;22;20200;-53
2021/12/20 03:07:46;;;;;;;24.67;15.93;;;2.90;99.90;;;;;;5013317;28;20189;-51
2021/12/20 03:10:13;;;;;;;23.07;15.87;;;3.00;99.90;;;;;;5013548;28;20585;-55
2021/12/20 03:12:39;;;;;;;25.80;15.83;;;3.00;99.90;;;;;;5013104;28;20171;-50
2021/12/20 03:15:11;;;;;;;22.90;15.73;;;3.10;99.90;;;;;;5013195;28;20168;-53
2021/12/20 03:17:37;;;;;;;23.50;15.77;;;3.10;99.90;;;;;;5013365;28;20601;-51
2021/12/20 03:20:03;;;;;;;24.93;15.70;;;2.90;99.90;;;;;;5013478;28;20259;-55
2021/12/20 03:22:29;;;;;;;23.93;14.97;;;2.90;99.90;;;;;;5013102;28;20208;-54
2021/12/20 03:24:54;;;;;;;25.10;16.17;;;3.00;99.90;;;;;;5012786;28;20259;-53
2021/12/20 03:27:20;;;;;;;25.57;16.07;;;3.10;99.90;;;;;;5013096;28;20196;-52
2021/12/20 03:29:46;;;;;;;21.93;14.33;;;3.10;99.90;;;;;;5013219;28;20168;-56
2021/12/20 03:32:12;;;;;;;21.77;15.03;;;3.10;99.90;;;;;;5013076;28;20219;-57
2021/12/20 03:34:37;;;;;;;22.63;15.20;;;3.20;99.90;;;;;;5012838;28;20179;-53
2021/12/20 03:37:03;;;;;;;22.40;15.10;;;3.30;99.90;;;;;;5013105;28;20200;-51
2021/12/20 03:39:29;;;;;;;22.00;14.30;;;3.30;99.90;;;;;;5012973;28;20188;-51
2021/12/20 03:41:54;;;;;;;22.30;15.07;;;3.50;99.90;;;;;;5012961;28;20540;-54
2021/12/20 03:44:20;;;;;;;23.40;14.80;;;3.50;99.90;;;;;;5012515;28;20657;-51
2021/12/20 03:46:45;;;;;;;22.63;15.33;;;3.60;99.90;;;;;;5012359;28;20192;-51
2021/12/20 03:49:11;;;;;;;20.37;14.77;;;3.50;99.90;;;;;;5012184;28;20211;-56
2021/12/20 03:51:37;;;;;;;21.30;14.43;;;3.50;99.90;;;;;;5012715;28;20642;-55
2021/12/20 03:54:04;;;;;;;21.67;14.20;;;3.50;99.90;;;;;;5012534;28;20234;-51
2021/12/20 03:56:29;;;;;;;19.97;13.97;;;3.50;99.90;;;;;;5011611;28;20287;-57
2021/12/20 03:58:55;;;;;;;19.77;13.73;;;3.60;99.90;;;;;;5012735;28;20207;-51
2021/12/20 04:01:21;;;;;;;17.87;12.77;;;3.70;99.90;;;;;;5012421;28;20180;-51
2021/12/20 04:03:46;;;;;;;18.87;12.70;;;3.70;99.90;;;;;;5012500;28;20200;-54
2021/12/20 04:06:14;;;;;;;20.63;13.30;;;3.60;99.90;;;;;;5011953;28;20213;-58
2021/12/20 04:08:40;;;;;;;20.57;12.70;;;3.50;99.90;;;;;;5012519;28;20218;-53
2021/12/20 04:11:06;;;;;;;19.10;13.30;;;3.30;99.90;;;;;;5012332;28;20164;-55
2021/12/20 04:13:33;;;;;;;18.90;13.17;;;3.30;99.90;;;;;;5012400;28;20274;-54
2021/12/20 04:15:59;;;;;;;19.33;13.03;;;3.30;99.90;;;;;;5011911;28;20195;-56
2021/12/20 04:18:26;;;;;;;19.03;12.27;;;3.40;99.90;;;;;;5012229;28;20179;-52
2021/12/20 04:20:52;;;;;;;19.17;12.73;;;3.40;99.90;;;;;;5012172;28;20207;-56
2021/12/20 04:23:18;;;;;;;21.87;13.93;;;3.60;99.90;;;;;;5012032;28;20565;-53
2021/12/20 04:25:44;;;;;;;20.67;13.73;;;3.70;99.90;;;;;;5011796;28;20193;-51
2021/12/20 04:28:10;;;;;;;19.17;12.63;;;3.80;99.90;;;;;;5012273;28;20210;-57
2021/12/20 04:30:35;;;;;;;21.47;12.90;;;3.90;99.90;;;;;;5012064;28;20686;-57
2021/12/20 04:33:01;;;;;;;19.03;13.10;;;4.10;99.90;;;;;;5011957;28;20761;-51
2021/12/20 04:35:27;;;;;;;17.63;12.40;;;4.20;99.90;;;;;;5011683;28;20196;-51
2021/12/20 04:37:53;;;;;;;17.77;12.80;;;4.30;99.90;;;;;;5012096;28;20187;-56
2021/12/20 04:40:21;;;;;;;18.73;12.57;;;4.30;99.90;;;;;;5012044;28;20255;-55
2021/12/20 04:42:54;;;;;;;18.17;12.40;;;4.30;99.90;;;;;;5011883;28;20199;-52
2021/12/20 04:45:21;;;;;;;15.00;10.47;;;4.20;99.90;;;;;;5011687;28;20219;-54
2021/12/20 04:47:47;;;;;;;16.17;11.87;;;4.00;99.90;;;;;;5011756;28;20168;-58
2021/12/20 04:50:13;;;;;;;15.63;11.87;;;3.80;99.90;;;;;;5012103;28;20169;-56
2021/12/20 04:52:38;;;;;;;15.87;11.20;;;3.60;99.90;;;;;;5012008;28;20176;-54
2021/12/20 04:55:05;;;;;;;14.47;11.00;;;3.40;99.90;;;;;;5011528;28;20169;-57
2021/12/20 04:57:31;;;;;;;16.27;11.80;;;3.30;99.90;;;;;;5011757;28;20173;-57
2021/12/20 04:59:57;;;;;;;17.70;11.60;;;3.30;99.90;;;;;;5011830;28;20208;-56
2021/12/20 05:02:22;;;;;;;14.23;10.33;;;3.30;99.90;;;;;;5011714;28;20563;-57
2021/12/20 05:04:48;;;;;;;16.33;10.33;;;3.30;99.90;;;;;;5011522;28;20258;-57
2021/12/20 05:07:13;;;;;;;15.03;9.93;;;3.30;99.90;;;;;;4994235;28;20577;-57
2021/12/20 05:09:40;;;;;;;14.20;10.33;;;3.20;99.90;;;;;;5015644;28;20173;-56
2021/12/20 05:12:12;;;;;;;13.10;8.90;;;3.20;99.90;;;;;;5015747;28;20259;-57
2021/12/20 05:14:42;;;;;;;12.93;9.13;;;3.30;99.90;;;;;;5015393;28;20172;-57
2021/12/20 05:17:09;;;;;;;11.27;8.20;;;3.40;99.90;;;;;;5015768;28;20270;-57
2021/12/20 05:19:34;;;;;;;12.13;8.40;;;3.40;99.90;;;;;;5015483;28;20179;-57
2021/12/20 05:22:00;;;;;;;10.97;8.23;;;3.50;99.90;;;;;;5015641;28;20177;-59
2021/12/20 05:24:26;;;;;;;10.17;7.60;;;3.50;99.90;;;;;;5015366;28;20200;-57
2021/12/20 05:26:51;;;;;;;12.00;8.33;;;3.50;99.90;;;;;;5014577;28;20231;-57
2021/12/20 05:29:17;;;;;;;11.10;8.07;;;3.50;99.90;;;;;;5015486;28;20636;-57
2021/12/20 05:31:43;;;;;;;13.37;8.63;;;3.50;99.90;;;;;;5014949;28;20204;-56
2021/12/20 05:34:08;;;;;;;12.47;8.73;;;3.50;99.90;;;;;;4997744;28;20180;-57
2021/12/20 05:36:34;;;;;;;11.73;8.73;;;3.40;99.90;;;;;;5014880;28;20200;-59
2021/12/20 05:38:59;;;;;;;13.40;9.57;;;3.40;99.90;;;;;;5015075;28;20180;-57
2021/12/20 05:41:25;;;;;;;11.73;8.33;;;3.30;99.90;;;;;;5014815;28;20582;-57
2021/12/20 05:43:51;;;;;;;13.90;9.50;;;3.30;99.90;;;;;;5015100;28;20207;-57
2021/12/20 05:46:16;;;;;;;13.67;9.23;;;3.30;99.90;;;;;;5014614;28;20200;-56
2021/12/20 05:48:42;;;;;;;14.00;9.67;;;3.30;99.90;;;;;;5015272;28;20184;-51
2021/12/20 05:51:08;;;;;;;14.23;10.10;;;3.30;99.90;;;;;;5014720;28;20191;-51
2021/12/20 05:53:33;;;;;;;14.13;9.83;;;3.30;99.90;;;;;;5014976;28;20546;-53
2021/12/20 05:55:59;;;;;;;14.20;10.57;;;3.20;99.90;;;;;;5014625;28;20192;-54
2021/12/20 05:58:25;;;;;;;14.97;10.10;;;3.20;99.90;;;;;;5015075;28;20180;-51
2021/12/20 06:00:51;;;;;;;14.67;10.20;;;3.10;99.90;;;;;;5014932;28;20716;-52
2021/12/20 06:03:16;;;;;;;15.40;10.40;;;3.20;99.90;;;;;;5014651;28;20283;-51
2021/12/20 06:05:42;;;;;;;14.50;10.50;;;3.30;99.90;;;;;;5014151;28;20208;-54
2021/12/20 06:08:09;;;;;;;14.40;10.30;;;3.30;99.90;;;;;;5014491;28;20251;-50
2021/12/20 06:10:35;;;;;;;14.30;10.20;;;3.30;99.90;;;;;;5014526;28;20176;-53
2021/12/20 06:13:04;;;;;;;15.77;10.23;;;3.30;99.90;;;;;;5014147;28;20534;-50
2021/12/20 06:15:30;;;;;;;16.90;11.47;;;3.30;99.90;;;;;;5014208;28;20620;-52
2021/12/20 06:17:56;;;;;;;14.40;10.97;;;3.40;99.90;;;;;;5014334;28;20204;-50
2021/12/20 06:20:21;;;;;;;16.03;11.00;;;3.40;99.90;;;;;;5013359;28;20184;-52
2021/12/20 06:22:47;;;;;;;14.27;10.23;;;3.30;99.90;;;;;;5014194;28;20299;-54
2021/12/20 06:25:13;;;;;;;14.07;9.93;;;3.30;99.90;;;;;;5013776;28;20175;-51
2021/12/20 06:27:39;;;;;;;16.10;10.83;;;3.40;99.90;;;;;;5014329;28;20172;-56
2021/12/20 06:30:08;;;;;;;16.43;10.63;;;4.40;99.90;;;;;;5013453;28;20180;-54
2021/12/20 06:32:35;;;;;;;14.60;10.13;;;3.40;99.90;;;;;;5014110;28;20186;-54
2021/12/20 06:35:01;;;;;;;14.63;9.63;;;3.50;99.90;;;;;;5013927;28;20561;-51
2021/12/20 06:37:26;;;;;;;15.10;10.23;;;3.60;99.90;;;;;;5014132;28;20177;-51
2021/12/20 06:39:52;;;;;;;14.23;9.83;;;3.70;99.90;;;;;;5013862;28;20187;-51
2021/12/20 06:42:17;;;;;;;13.47;9.33;;;3.70;99.90;;;;;;5013805;28;20183;-51
2021/12/20 06:44:43;;;;;;;14.57;10.87;;;3.70;99.90;;;;;;5013337;28;20681;-52
2021/12/20 06:47:08;;;;;;;14.10;9.73;;;3.80;99.90;;;;;;5013783;28;20193;-52
2021/12/20 06:49:34;;;;;;;14.50;10.37;;;3.80;99.90;;;;;;5013761;28;20183;-51
2021/12/20 06:52:02;;;;;;;15.27;10.70;;;3.70;99.90;;;;;;5013786;28;20179;-50
2021/12/20 06:54:28;;;;;;;14.93;10.33;;;3.50;99.90;;;;;;5013802;28;20172;-50
2021/12/20 06:56:53;;;;;;;14.30;10.43;;;3.30;99.90;;;;;;5013287;28;20258;-52
2021/12/20 06:59:20;;;;;;;14.33;9.80;;;3.30;99.90;;;;;;5013822;28;20295;-50
2021/12/20 07:01:45;;;;;;;12.23;9.20;;;3.40;99.90;;;;;;5013539;28;20215;-51
2021/12/20 07:04:12;;;;;;;14.57;9.60;;;3.40;99.90;;;;;;5012031;28;20204;-51
2021/12/20 07:06:38;;;;;;;13.60;9.77;;;3.40;99.90;;;;;;5012822;28;20212;-57
2021/12/20 07:09:04;;;;;;;16.27;10.63;;;3.30;99.90;;;;;;5013539;28;20180;-52
2021/12/20 07:11:30;;;;;;;14.13;9.37;;;3.20;99.90;;;;;;5013270;28;20226;-53
2021/12/20 07:13:56;;;;;;;13.87;10.17;;;3.10;99.90;;;;;;5013627;28;20185;-50
2021/12/20 07:16:22;;;;;;;15.27;9.73;;;3.00;99.90;;;;;;5013055;28;20239;-50
2021/12/20 07:18:48;;;;;;;13.87;9.80;;;2.90;99.90;;;;;;5013494;28;20203;-51
2021/12/20 07:21:13;;;;;;;14.87;9.60;;;2.90;99.90;;;;;;5012949;28;20226;-50
2021/12/20 07:23:39;;;;;;;14.67;9.90;;;3.00;99.90;;;;;;5012832;28;20204;-54
2021/12/20 07:26:09;;;;;;;15.13;10.20;;;3.00;99.90;;;;;;5012174;28;20192;-51
2021/12/20 07:28:35;;;;;;;13.93;10.03;;;3.00;99.90;;;;;;5013134;28;20554;-52
2021/12/20 07:31:00;;;;;;;15.53;9.90;;;3.00;99.90;;;;;;5012528;28;20184;-49
2021/12/20 07:33:26;;;;;;;16.10;10.20;;;3.10;99.90;;;;;;5012828;28;20254;-52
2021/12/20 07:35:52;;;;;;;12.67;9.13;;;3.20;99.90;;;;;;5012755;28;20542;-52
2021/12/20 07:38:18;;;;;;;14.87;9.33;;;3.40;99.90;;;;;;5012977;28;20169;-51
2021/12/20 07:40:45;;;;;;;12.37;9.27;;;3.60;99.90;;;;;;5013151;28;20758;-51
2021/12/20 07:43:11;;;;;;;13.50;8.87;;;3.60;99.90;;;;;;5012746;28;20215;-52
2021/12/20 07:45:36;;;;;;;13.37;9.70;;;3.70;99.90;;;;;;5012660;28;20243;-51
2021/12/20 07:48:02;;;;;;;12.63;9.33;;;3.50;99.90;;;;;;5013004;28;20169;-55
2021/12/20 07:50:30;;;;;;;13.33;8.40;;;3.30;99.90;;;;;;5012780;28;20662;-50
2021/12/20 07:52:56;;;;;;;11.60;8.33;;;3.10;99.90;;;;;;5013365;28;20169;-50
2021/12/20 07:55:21;;;;;;;11.00;8.00;;;3.20;99.90;;;;;;5012328;28;20203;-53
2021/12/20 07:57:47;;;;;;;11.03;7.70;;;3.30;99.90;;;;;;5012846;28;20298;-54
2021/12/20 08:00:13;;;;;;;11.33;7.83;;;3.40;99.90;;;;;;5012629;28;20184;-50
2021/12/20 08:02:39;;;;;;;10.90;7.70;;;3.50;99.90;;;;;;5012613;28;20172;-53
2021/12/20 08:05:05;;;;;;;9.53;7.63;;;3.60;99.90;;;;;;5012017;28;20251;-50
2021/12/20 08:07:31;;;;;;;9.53;7.43;;;3.60;99.90;;;;;;5012876;28;20176;-52
2021/12/20 08:09:57;;;;;;;10.70;6.30;;;3.70;99.90;;;;;;5012539;28;20191;-55
2021/12/20 08:12:22;;;;;;;9.73;6.27;;;3.70;99.90;;;;;;5012539;28;20247;-53
2021/12/20 08:14:48;;;;;;;8.70;5.90;;;3.70;99.90;;;;;;5012163;28;20192;-53
2021/12/20 08:17:13;;;;;;;7.83;5.67;;;4.00;99.90;;;;;;5012203;28;20196;-50
2021/12/20 08:19:40;;;;;;;7.77;5.20;;;4.40;99.90;;;;;;5012362;28;20180;-50
2021/12/20 08:22:06;;;;;;;8.27;5.50;;;4.60;99.90;;;;;;5012337;28;20192;-50
2021/12/20 08:24:32;;;;;;;8.67;5.90;;;4.30;99.90;;;;;;5012264;28;20208;-48
2021/12/20 08:26:57;;;;;;;9.13;5.30;;;3.90;99.90;;;;;;5011984;28;20662;-54
2021/12/20 08:29:24;;;;;;;8.23;5.83;;;3.70;99.90;;;;;;5012368;28;20179;-51
2021/12/20 08:31:50;;;;;;;7.17;5.30;;;3.70;99.90;;;;;;5012386;28;20650;-51
2021/12/20 08:34:16;;;;;;;7.63;4.90;;;3.50;99.90;;;;;;5012212;28;20204;-52
2021/12/20 08:36:42;;;;;;;7.27;5.10;;;3.60;99.90;;;;;;5011803;28;20227;-52
2021/12/20 08:39:08;;;;;;;6.33;4.70;;;3.80;99.90;;;;;;5011901;28;20175;-50
2021/12/20 08:41:33;;;;;;;6.83;5.20;;;4.10;99.90;;;;;;5012033;28;20176;-54
2021/12/20 08:43:59;;;;;;;5.83;4.07;;;4.70;99.90;;;;;;5011507;28;20207;-51
2021/12/20 08:46:25;;;;;;;6.37;4.63;;;5.20;99.90;;;;;;5011760;28;20228;-50
2021/12/20 08:48:52;;;;;;;5.77;3.90;;;5.40;99.90;;;;;;5011925;28;20705;-52
2021/12/20 08:51:18;;;;;;;6.13;4.30;;;5.60;99.90;;;;;;5012008;28;20192;-50
2021/12/20 08:53:45;;;;;;;5.67;3.90;;;6.20;99.90;;;;;;5012017;28;20173;-50
2021/12/20 08:56:11;;;;;;;4.37;3.43;;;6.70;99.90;;;;;;5011662;28;20665;-50
2021/12/20 08:58:37;;;;;;;6.63;3.83;;;7.20;99.90;;;;;;5011886;28;20165;-51
2021/12/20 09:01:03;;;;;;;4.13;3.30;;;8.00;99.90;;;;;;5013169;28;20180;-51
2021/12/20 09:03:29;;;;;;;6.67;3.40;;;9.50;99.90;;;;;;5019894;28;20199;-54
2021/12/20 09:05:55;;;;;;;2.87;2.40;;;12.20;99.90;;;;;;5014816;28;20214;-55
2021/12/20 09:08:22;;;;;;;4.20;3.10;;;15.10;99.90;;;;;;5011485;28;20693;-54
2021/12/20 09:10:49;;;;;;;4.53;3.13;;;17.00;99.90;;;;;;5051921;22;20660;-56
2021/12/20 09:13:15;;;;;;;4.23;3.07;;;18.20;98.10;;;;;;5020623;28;20188;-50
2021/12/20 09:15:40;;;;;;;3.67;2.90;;;18.80;95.60;;;;;;5019479;28;20367;-52
2021/12/20 09:18:08;;;;;;;4.38;3.00;;;19.50;95.20;;;;;;5021940;28;20228;-58
2021/12/20 09:20:36;;;;;;;3.22;2.90;;;20.70;92.90;;;;;;5020663;28;20183;-56
2021/12/20 09:23:05;;;;;;;3.05;2.70;;;21.20;92.00;;;;;;5023761;28;20557;-56
2021/12/20 09:25:32;;;;;;;4.18;2.58;;;21.80;89.60;;;;;;5020854;28;20185;-55
2021/12/20 09:28:04;;;;;;;4.75;2.63;;;21.40;89.00;;;;;;5020320;28;20180;-53
2021/12/20 09:30:30;;;;;;;2.50;1.80;;;21.70;87.00;;;;;;5017394;28;20183;-55
2021/12/20 09:32:56;;;;;;;3.28;1.92;;;23.30;84.80;;;;;;5021695;28;20228;-55
2021/12/20 09:35:22;;;;;;;2.00;1.60;;;24.90;74.80;;;;;;5002161;28;20173;-51
2021/12/20 09:37:51;;;;;;;2.03;1.75;;;25.80;71.50;;;;;;5021720;28;20176;-54
2021/12/20 09:40:20;;;;;;;1.58;1.48;;;27.30;64.20;;;;;;5021597;28;20160;-51
2021/12/20 09:42:52;;;;;;;1.90;1.50;;;28.20;59.20;;;;;;5017553;28;20173;-48
2021/12/20 09:45:20;;;;;;;2.03;1.25;;;28.30;56.50;;;;;;5019445;28;20180;-53
2021/12/20 09:47:47;;;;;;;2.97;1.50;;;28.10;56.20;;;;;;5017811;28;20165;-56
2021/12/20 09:50:13;;;;;;;1.38;1.27;;;27.30;53.70;;;;;;5020773;28;20172;-55
2021/12/20 09:52:42;;;;;;;1.88;1.50;;;27.00;56.20;;;;;;5021760;28;20657;-55
2021/12/20 09:55:08;;;;;;;2.47;1.60;;;27.50;54.50;;;;;;5019220;28;20537;-57
2021/12/20 09:57:35;;;;;;;2.08;1.10;;;28.10;52.50;;;;;;5024124;28;20168;-55
2021/12/20 10:00:04;;;;;;;1.27;1.13;;;28.80;50.60;;;;;;5025445;28;20699;-55
2021/12/20 10:02:30;;;;;;;2.55;1.50;;;28.50;48.70;;;;;;5023743;28;20557;-57
2021/12/20 10:04:55;;;;;;;1.85;1.10;;;27.70;48.30;;;;;;5023540;28;20206;-54
2021/12/20 10:07:24;;;;;;;1.40;1.17;;;27.60;51.40;;;;;;5025288;28;20196;-54
2021/12/20 10:09:51;;;;;;;1.70;1.38;;;28.70;49.20;;;;;;5024048;28;20168;-54
2021/12/20 10:12:25;;;;;;;1.40;1.17;;;29.80;45.90;;;;;;5023340;28;20207;-50
2021/12/20 10:14:54;;;;;;;1.52;1.10;;;29.90;46.50;;;;;;5020460;28;20601;-50
2021/12/20 10:17:21;;;;;;;1.65;1.20;;;30.10;45.40;;;;;;5019612;28;20172;-55
2021/12/20 10:19:47;;;;;;;1.20;1.08;;;30.50;45.40;;;;;;5023714;28;20179;-55
2021/12/20 10:22:30;;;;;;;1.88;1.20;;;31.20;44.10;;;;;;5023525;28;20591;-55
2021/12/20 10:24:58;;;;;;;1.65;1.25;;;31.60;44.10;;;;;;5012148;28;20620;-54
2021/12/20 10:27:41;;;;;;;1.13;1.02;;;31.80;41.40;;;;;;5014499;28;20700;-52
2021/12/20 10:30:25;;;;;;;1.85;1.40;;;30.80;40.60;;;;;;5014339;28;20172;-56
2021/12/20 10:32:51;;;;;;;1.60;1.50;;;29.40;44.50;;;;;;5014212;28;20173;-55
2021/12/20 10:35:30;;;;;;;1.52;1.40;;;30.00;43.00;;;;;;5014081;28;20180;-58
2021/12/20 10:38:03;;;;;;;1.95;1.45;;;30.10;42.80;;;;;;5014073;28;20169;-58
2021/12/20 10:40:28;;;;;;;1.92;1.40;;;30.20;43.20;;;;;;5021923;28;20676;-56
2021/12/20 10:42:56;;;;;;;1.88;1.30;;;31.10;41.20;;;;;;5021294;28;20204;-59
2021/12/20 10:45:24;;;;;;;2.13;1.20;;;31.60;41.50;;;;;;5024491;28;20165;-59
2021/12/20 10:47:50;;;;;;;2.17;1.30;;;32.90;40.20;;;;;;5029741;28;20262;-58
2021/12/20 10:50:29;;;;;;;1.55;1.30;;;32.90;39.00;;;;;;5026541;28;20803;-57
2021/12/20 10:53:18;;;;;;;2.20;1.48;;;32.60;38.80;;;;;;5023822;28;20184;-54
2021/12/20 10:55:50;;;;;;;2.03;1.50;;;30.70;40.30;;;;;;5022580;28;20194;-58
2021/12/20 10:58:19;;;;;;;2.05;1.23;;;27.90;42.00;;;;;;5028273;28;20180;-59
2021/12/20 11:00:59;;;;;;;1.63;1.50;;;26.90;43.40;;;;;;5032552;28;20269;-54
2021/12/20 11:03:28;;;;;;;2.05;1.38;;;26.90;43.40;;;;;;5033397;28;20202;-56
2021/12/20 11:11:22;;;;;;;1.23;1.00;;;30.30;40.50;;;;;;5033426;28;20623;-50
2021/12/20 11:13:48;;;;;;;1.65;1.17;;;30.60;41.40;;;;;;5033414;28;20637;-55
2021/12/20 11:16:32;;;;;;;1.10;1.00;;;31.10;39.50;;;;;;5032997;28;20214;-56
2021/12/20 11:19:07;;;;;;;2.42;1.30;;;31.70;39.60;;;;;;5033374;28;20226;-54
2021/12/20 11:21:38;;;;;;;2.28;1.25;;;32.10;37.90;;;;;;5015375;28;20202;-54
2021/12/20 11:24:12;;;;;;;1.25;1.10;;;32.20;37.50;;;;;;5033143;28;20222;-53
2021/12/20 11:26:39;;;;;;;2.38;1.40;;;31.40;39.40;;;;;;5032876;28;20203;-54
2021/12/20 11:29:05;;;;;;;2.63;1.42;;;31.90;37.90;;;;;;5033117;28;20657;-58
2021/12/20 11:31:32;;;;;;;2.72;1.45;;;32.70;38.00;;;;;;5032876;28;20204;-53
2021/12/20 11:34:00;;;;;;;2.20;1.45;;;32.50;38.30;;;;;;5032966;28;20179;-56
2021/12/20 11:36:25;;;;;;;1.55;1.45;;;32.50;38.30;;;;;;5032524;28;20176;-56
2021/12/20 11:38:52;;;;;;;2.60;1.67;;;31.20;38.60;;;;;;5032872;28;20168;-55
2021/12/20 11:41:18;;;;;;;1.38;1.27;;;31.00;39.10;;;;;;5032764;28;20269;-50
2021/12/20 11:43:48;;;;;;;3.35;1.70;;;29.60;39.40;;;;;;5032735;28;20199;-53
2021/12/20 11:46:14;;;;;;;1.85;1.30;;;26.60;43.20;;;;;;5032488;28;20164;-52
2021/12/20 11:48:42;;;;;;;4.32;1.67;;;24.40;44.00;;;;;;5032661;28;20285;-53
2021/12/20 11:51:08;;;;;;;2.90;1.70;;;21.40;46.00;;;;;;5032529;28;20195;-51
2021/12/20 11:53:40;;;;;;;3.97;1.65;;;20.00;49.80;;;;;;5032616;28;20646;-54
2021/12/20 11:56:06;;;;;;;2.97;1.58;;;19.90;50.60;;;;;;5032272;28;20172;-58
2021/12/20 11:58:33;;;;;;;2.00;1.40;;;20.60;51.40;;;;;;5032399;28;20545;-54
2021/12/20 12:01:04;;;;;;;2.33;1.52;;;21.70;49.70;;;;;;5032282;28;20234;-55
2021/12/20 12:03:32;;;;;;;2.60;1.30;;;22.50;46.60;;;;;;5032268;28;20223;-52
2021/12/20 12:06:06;;;;;;;1.42;1.33;;;21.10;46.70;;;;;;5032033;28;20176;-52
2021/12/20 12:08:42;;;;;;;2.10;1.48;;;19.30;48.70;;;;;;5032337;28;20207;-56
2021/12/20 12:11:08;;;;;;;2.08;1.65;;;17.50;51.60;;;;;;5032220;28;20198;-51
2021/12/20 12:14:01;;;;;;;1.70;1.30;;;16.60;54.00;;;;;;5032313;28;20552;-52
2021/12/20 12:16:54;;;;;;;1.52;1.10;;;16.00;53.30;;;;;;5032067;28;20631;-53
2021/12/20 12:19:37;;;;;;;1.92;1.13;;;16.50;54.90;;;;;;5031899;28;20250;-53
2021/12/20 12:22:03;;;;;;;1.40;0.87;;;16.30;54.10;;;;;;5032008;28;20192;-55
2021/12/20 12:24:46;;;;;;;2.83;1.10;;;16.10;55.30;;;;;;5032036;28;20760;-56
2021/12/20 12:27:24;;;;;;;2.20;1.13;;;16.60;56.70;;;;;;5032169;28;20188;-53
2021/12/20 12:30:11;;;;;;;2.42;1.15;;;18.00;53.90;;;;;;5032027;28;20536;-51
2021/12/20 12:33:12;;;;;;;1.95;1.10;;;19.20;53.70;;;;;;5031918;28;20184;-51
2021/12/20 12:35:47;;;;;;;1.40;0.98;;;19.00;50.70;;;;;;4951356;29;20292;-51
2021/12/20 12:38:14;;;;;;;2.10;1.10;;;16.30;51.50;;;;;;5020152;28;20186;-51
2021/12/20 12:40:40;;;;;;;2.10;0.93;;;16.00;54.70;;;;;;5031822;28;20188;-53
2021/12/20 12:43:05;;;;;;;1.23;0.97;;;15.70;54.30;;;;;;5031603;28;20204;-55
2021/12/20 12:45:58;;;;;;;1.35;1.10;;;16.40;56.60;;;;;;5031589;28;20179;-52
2021/12/20 12:48:41;;;;;;;1.67;0.95;;;17.60;53.20;;;;;;5031901;28;20167;-51
2021/12/20 12:51:26;;;;;;;1.83;1.00;;;18.10;52.10;;;;;;5031722;28;20587;-52
2021/12/20 12:53:55;;;;;;;1.42;1.00;;;18.30;51.70;;;;;;4951413;29;20194;-51
2021/12/20 12:56:23;;;;;;;1.50;1.13;;;18.90;50.90;;;;;;4951187;29;20186;-56
2021/12/20 12:59:16;;;;;;;2.58;1.17;;;18.80;49.20;;;;;;4951453;28;20202;-52
2021/12/20 13:01:56;;;;;;;1.65;0.85;;;17.50;50.80;;;;;;4951234;28;20197;-52
2021/12/20 13:04:51;;;;;;;1.27;0.70;;;17.10;53.20;;;;;;4951391;29;20231;-53